sensor_id;sensor_type;location;lat;lon;timestamp;P1;durP1;ratioP1;P2;durP2;ratioP2
48727;SDS011;34527;45.618;5.130;2023-05-15T00:00:25;9.55;;;8.15;;
48727;SDS011;34527;45.618;5.130;2023-05-15T00:02:51;9.60;;;8.45;;
48727;SDS011;34527;45.618;5.130;2023-05-15T00:05:17;9.07;;;8.07;;
48727;SDS011;34527;45.618;5.130;2023-05-15T00:07:43;8.65;;;7.82;;
48727;SDS011;34527;45.618;5.130;2023-05-15T00:10:09;9.45;;;8.32;;
48727;SDS011;34527;45.618;5.130;2023-05-15T00:12:34;8.98;;;7.97;;
48727;SDS011;34527;45.618;5.130;2023-05-15T00:15:00;10.45;;;8.63;;
48727;SDS011;34527;45.618;5.130;2023-05-15T00:17:26;9.63;;;7.95;;
48727;SDS011;34527;45.618;5.130;2023-05-15T00:19:52;10.13;;;9.00;;
48727;SDS011;34527;45.618;5.130;2023-05-15T00:22:21;10.25;;;9.13;;
48727;SDS011;34527;45.618;5.130;2023-05-15T00:24:47;9.38;;;8.38;;
48727;SDS011;34527;45.618;5.130;2023-05-15T00:27:13;13.30;;;9.48;;
48727;SDS011;34527;45.618;5.130;2023-05-15T00:29:38;11.35;;;9.25;;
48727;SDS011;34527;45.618;5.130;2023-05-15T00:32:04;12.48;;;10.68;;
48727;SDS011;34527;45.618;5.130;2023-05-15T00:34:30;11.20;;;10.10;;
48727;SDS011;34527;45.618;5.130;2023-05-15T00:36:56;13.57;;;10.90;;
48727;SDS011;34527;45.618;5.130;2023-05-15T00:39:21;13.45;;;10.90;;
48727;SDS011;34527;45.618;5.130;2023-05-15T00:41:47;13.20;;;11.27;;
48727;SDS011;34527;45.618;5.130;2023-05-15T00:44:14;14.15;;;11.93;;
48727;SDS011;34527;45.618;5.130;2023-05-15T00:46:42;12.55;;;11.25;;
48727;SDS011;34527;45.618;5.130;2023-05-15T00:49:10;14.10;;;11.63;;
48727;SDS011;34527;45.618;5.130;2023-05-15T00:51:42;12.95;;;11.65;;
48727;SDS011;34527;45.618;5.130;2023-05-15T00:54:08;16.48;;;12.40;;
48727;SDS011;34527;45.618;5.130;2023-05-15T00:56:34;14.77;;;12.93;;
48727;SDS011;34527;45.618;5.130;2023-05-15T00:59:03;16.05;;;13.25;;
48727;SDS011;34527;45.618;5.130;2023-05-15T01:01:30;18.55;;;13.27;;
48727;SDS011;34527;45.618;5.130;2023-05-15T01:03:58;15.25;;;12.82;;
48727;SDS011;34527;45.618;5.130;2023-05-15T01:06:25;15.77;;;13.98;;
48727;SDS011;34527;45.618;5.130;2023-05-15T01:08:52;17.95;;;13.82;;
48727;SDS011;34527;45.618;5.130;2023-05-15T01:11:20;20.83;;;14.45;;
48727;SDS011;34527;45.618;5.130;2023-05-15T01:13:49;16.63;;;13.95;;
48727;SDS011;34527;45.618;5.130;2023-05-15T01:16:15;16.42;;;14.32;;
48727;SDS011;34527;45.618;5.130;2023-05-15T01:18:40;15.75;;;14.07;;
48727;SDS011;34527;45.618;5.130;2023-05-15T01:23:41;17.85;;;13.80;;
48727;SDS011;34527;45.618;5.130;2023-05-15T01:28:39;19.55;;;14.27;;
48727;SDS011;34527;45.618;5.130;2023-05-15T01:31:13;18.05;;;14.60;;
48727;SDS011;34527;45.618;5.130;2023-05-15T01:33:44;18.77;;;14.38;;
48727;SDS011;34527;45.618;5.130;2023-05-15T01:36:13;21.15;;;15.23;;
48727;SDS011;34527;45.618;5.130;2023-05-15T01:38:55;16.80;;;15.00;;
48727;SDS011;34527;45.618;5.130;2023-05-15T01:41:25;19.02;;;14.75;;
48727;SDS011;34527;45.618;5.130;2023-05-15T01:43:56;18.67;;;14.80;;
48727;SDS011;34527;45.618;5.130;2023-05-15T01:46:27;20.10;;;14.90;;
48727;SDS011;34527;45.618;5.130;2023-05-15T01:48:55;17.00;;;14.27;;
48727;SDS011;34527;45.618;5.130;2023-05-15T01:51:24;17.98;;;15.05;;
48727;SDS011;34527;45.618;5.130;2023-05-15T01:53:52;16.65;;;14.93;;
48727;SDS011;34527;45.618;5.130;2023-05-15T01:56:19;17.65;;;15.45;;
48727;SDS011;34527;45.618;5.130;2023-05-15T01:58:47;21.27;;;16.30;;
48727;SDS011;34527;45.618;5.130;2023-05-15T02:01:14;21.58;;;16.48;;
48727;SDS011;34527;45.618;5.130;2023-05-15T02:03:40;22.73;;;17.15;;
48727;SDS011;34527;45.618;5.130;2023-05-15T02:06:07;19.35;;;16.08;;
48727;SDS011;34527;45.618;5.130;2023-05-15T02:08:33;21.08;;;17.25;;
48727;SDS011;34527;45.618;5.130;2023-05-15T02:11:00;22.70;;;17.80;;
48727;SDS011;34527;45.618;5.130;2023-05-15T02:13:27;24.08;;;18.67;;
48727;SDS011;34527;45.618;5.130;2023-05-15T02:15:54;25.55;;;18.45;;
48727;SDS011;34527;45.618;5.130;2023-05-15T02:18:20;25.70;;;18.23;;
48727;SDS011;34527;45.618;5.130;2023-05-15T02:20:46;23.70;;;18.60;;
48727;SDS011;34527;45.618;5.130;2023-05-15T02:23:12;26.23;;;18.80;;
48727;SDS011;34527;45.618;5.130;2023-05-15T02:25:41;22.70;;;18.75;;
48727;SDS011;34527;45.618;5.130;2023-05-15T02:28:23;25.25;;;19.42;;
48727;SDS011;34527;45.618;5.130;2023-05-15T02:30:56;23.40;;;18.58;;
48727;SDS011;34527;45.618;5.130;2023-05-15T02:33:30;27.70;;;19.30;;
48727;SDS011;34527;45.618;5.130;2023-05-15T02:36:18;21.80;;;17.95;;
48727;SDS011;34527;45.618;5.130;2023-05-15T02:38:47;22.15;;;18.23;;
48727;SDS011;34527;45.618;5.130;2023-05-15T02:41:16;23.80;;;18.92;;
48727;SDS011;34527;45.618;5.130;2023-05-15T02:43:42;23.27;;;19.45;;
48727;SDS011;34527;45.618;5.130;2023-05-15T02:46:08;25.50;;;18.92;;
48727;SDS011;34527;45.618;5.130;2023-05-15T02:48:36;22.73;;;18.77;;
48727;SDS011;34527;45.618;5.130;2023-05-15T02:51:05;25.27;;;20.02;;
48727;SDS011;34527;45.618;5.130;2023-05-15T02:53:31;25.65;;;19.83;;
48727;SDS011;34527;45.618;5.130;2023-05-15T02:55:57;24.55;;;20.20;;
48727;SDS011;34527;45.618;5.130;2023-05-15T02:58:23;25.88;;;19.65;;
48727;SDS011;34527;45.618;5.130;2023-05-15T03:00:49;24.98;;;18.98;;
48727;SDS011;34527;45.618;5.130;2023-05-15T03:03:14;27.48;;;20.42;;
48727;SDS011;34527;45.618;5.130;2023-05-15T03:05:40;25.30;;;18.35;;
48727;SDS011;34527;45.618;5.130;2023-05-15T03:08:06;28.45;;;19.65;;
48727;SDS011;34527;45.618;5.130;2023-05-15T03:10:31;24.73;;;18.83;;
48727;SDS011;34527;45.618;5.130;2023-05-15T03:12:57;24.95;;;20.08;;
48727;SDS011;34527;45.618;5.130;2023-05-15T03:15:23;26.25;;;19.27;;
48727;SDS011;34527;45.618;5.130;2023-05-15T03:17:48;24.20;;;19.98;;
48727;SDS011;34527;45.618;5.130;2023-05-15T03:20:14;24.88;;;20.08;;
48727;SDS011;34527;45.618;5.130;2023-05-15T03:22:40;24.13;;;19.58;;
48727;SDS011;34527;45.618;5.130;2023-05-15T03:25:07;24.85;;;20.13;;
48727;SDS011;34527;45.618;5.130;2023-05-15T03:27:34;28.33;;;20.95;;
48727;SDS011;34527;45.618;5.130;2023-05-15T03:30:00;26.67;;;21.35;;
48727;SDS011;34527;45.618;5.130;2023-05-15T03:32:26;28.45;;;20.58;;
48727;SDS011;34527;45.618;5.130;2023-05-15T03:34:51;25.10;;;20.33;;
48727;SDS011;34527;45.618;5.130;2023-05-15T03:37:17;26.33;;;20.20;;
48727;SDS011;34527;45.618;5.130;2023-05-15T03:39:43;28.65;;;21.15;;
48727;SDS011;34527;45.618;5.130;2023-05-15T03:42:08;27.65;;;20.42;;
48727;SDS011;34527;45.618;5.130;2023-05-15T03:44:34;28.27;;;20.17;;
48727;SDS011;34527;45.618;5.130;2023-05-15T03:47:00;30.27;;;21.42;;
48727;SDS011;34527;45.618;5.130;2023-05-15T03:49:25;27.55;;;20.83;;
48727;SDS011;34527;45.618;5.130;2023-05-15T03:51:51;28.33;;;21.27;;
48727;SDS011;34527;45.618;5.130;2023-05-15T03:54:16;28.35;;;21.50;;
48727;SDS011;34527;45.618;5.130;2023-05-15T03:56:42;27.92;;;21.70;;
48727;SDS011;34527;45.618;5.130;2023-05-15T03:59:08;25.38;;;20.95;;
48727;SDS011;34527;45.618;5.130;2023-05-15T04:01:34;26.50;;;21.02;;
48727;SDS011;34527;45.618;5.130;2023-05-15T04:03:59;29.38;;;21.55;;
48727;SDS011;34527;45.618;5.130;2023-05-15T04:06:25;27.13;;;21.90;;
48727;SDS011;34527;45.618;5.130;2023-05-15T04:08:50;26.40;;;21.95;;
48727;SDS011;34527;45.618;5.130;2023-05-15T04:11:16;27.70;;;21.77;;
48727;SDS011;34527;45.618;5.130;2023-05-15T04:13:42;31.35;;;22.30;;
48727;SDS011;34527;45.618;5.130;2023-05-15T04:16:07;30.33;;;21.45;;
48727;SDS011;34527;45.618;5.130;2023-05-15T04:18:33;30.98;;;21.58;;
48727;SDS011;34527;45.618;5.130;2023-05-15T04:20:59;30.30;;;21.70;;
48727;SDS011;34527;45.618;5.130;2023-05-15T04:23:25;29.67;;;23.23;;
48727;SDS011;34527;45.618;5.130;2023-05-15T04:25:50;29.40;;;21.17;;
48727;SDS011;34527;45.618;5.130;2023-05-15T04:28:17;31.02;;;22.45;;
48727;SDS011;34527;45.618;5.130;2023-05-15T04:30:45;32.25;;;22.13;;
48727;SDS011;34527;45.618;5.130;2023-05-15T04:33:11;28.08;;;21.65;;
48727;SDS011;34527;45.618;5.130;2023-05-15T04:35:37;32.80;;;22.05;;
48727;SDS011;34527;45.618;5.130;2023-05-15T04:38:03;26.83;;;21.08;;
48727;SDS011;34527;45.618;5.130;2023-05-15T04:40:28;29.80;;;21.73;;
48727;SDS011;34527;45.618;5.130;2023-05-15T04:42:54;27.55;;;22.33;;
48727;SDS011;34527;45.618;5.130;2023-05-15T04:45:19;29.17;;;23.17;;
48727;SDS011;34527;45.618;5.130;2023-05-15T04:47:45;30.75;;;23.60;;
48727;SDS011;34527;45.618;5.130;2023-05-15T04:50:11;31.05;;;23.02;;
48727;SDS011;34527;45.618;5.130;2023-05-15T04:52:36;31.27;;;23.23;;
48727;SDS011;34527;45.618;5.130;2023-05-15T04:55:02;28.15;;;22.63;;
48727;SDS011;34527;45.618;5.130;2023-05-15T04:57:28;32.28;;;23.23;;
48727;SDS011;34527;45.618;5.130;2023-05-15T04:59:54;32.42;;;23.35;;
48727;SDS011;34527;45.618;5.130;2023-05-15T05:02:20;31.83;;;23.98;;
48727;SDS011;34527;45.618;5.130;2023-05-15T05:04:46;31.17;;;24.05;;
48727;SDS011;34527;45.618;5.130;2023-05-15T05:07:12;33.35;;;24.05;;
48727;SDS011;34527;45.618;5.130;2023-05-15T05:09:38;36.90;;;23.77;;
48727;SDS011;34527;45.618;5.130;2023-05-15T05:12:04;34.13;;;24.83;;
48727;SDS011;34527;45.618;5.130;2023-05-15T05:14:33;32.53;;;25.30;;
48727;SDS011;34527;45.618;5.130;2023-05-15T05:16:59;34.38;;;24.95;;
48727;SDS011;34527;45.618;5.130;2023-05-15T05:19:25;32.70;;;24.33;;
48727;SDS011;34527;45.618;5.130;2023-05-15T05:21:52;34.38;;;25.13;;
48727;SDS011;34527;45.618;5.130;2023-05-15T05:24:18;35.08;;;25.83;;
48727;SDS011;34527;45.618;5.130;2023-05-15T05:26:43;30.80;;;25.40;;
48727;SDS011;34527;45.618;5.130;2023-05-15T05:29:09;32.17;;;24.08;;
48727;SDS011;34527;45.618;5.130;2023-05-15T05:31:35;32.00;;;24.05;;
48727;SDS011;34527;45.618;5.130;2023-05-15T05:34:01;32.72;;;23.17;;
48727;SDS011;34527;45.618;5.130;2023-05-15T05:36:26;36.47;;;25.52;;
48727;SDS011;34527;45.618;5.130;2023-05-15T05:38:52;30.70;;;24.48;;
48727;SDS011;34527;45.618;5.130;2023-05-15T05:41:17;33.75;;;24.48;;
48727;SDS011;34527;45.618;5.130;2023-05-15T05:43:43;35.25;;;25.27;;
48727;SDS011;34527;45.618;5.130;2023-05-15T05:46:09;31.92;;;24.15;;
48727;SDS011;34527;45.618;5.130;2023-05-15T05:48:34;36.03;;;25.17;;
48727;SDS011;34527;45.618;5.130;2023-05-15T05:51:00;31.25;;;23.80;;
48727;SDS011;34527;45.618;5.130;2023-05-15T05:53:26;32.30;;;25.17;;
48727;SDS011;34527;45.618;5.130;2023-05-15T05:55:51;32.92;;;25.80;;
48727;SDS011;34527;45.618;5.130;2023-05-15T05:58:17;38.70;;;25.60;;
48727;SDS011;34527;45.618;5.130;2023-05-15T06:00:43;31.30;;;24.73;;
48727;SDS011;34527;45.618;5.130;2023-05-15T06:03:09;32.08;;;24.80;;
48727;SDS011;34527;45.618;5.130;2023-05-15T06:05:35;36.03;;;25.80;;
48727;SDS011;34527;45.618;5.130;2023-05-15T06:08:01;36.13;;;24.80;;
48727;SDS011;34527;45.618;5.130;2023-05-15T06:10:28;36.08;;;26.23;;
48727;SDS011;34527;45.618;5.130;2023-05-15T06:12:54;32.17;;;25.80;;
48727;SDS011;34527;45.618;5.130;2023-05-15T06:15:20;36.75;;;26.27;;
48727;SDS011;34527;45.618;5.130;2023-05-15T06:17:46;35.45;;;25.92;;
48727;SDS011;34527;45.618;5.130;2023-05-15T06:20:11;33.90;;;25.25;;
48727;SDS011;34527;45.618;5.130;2023-05-15T06:22:38;31.77;;;25.55;;
48727;SDS011;34527;45.618;5.130;2023-05-15T06:25:04;35.47;;;26.42;;
48727;SDS011;34527;45.618;5.130;2023-05-15T06:27:31;37.97;;;26.98;;
48727;SDS011;34527;45.618;5.130;2023-05-15T06:29:57;33.53;;;25.65;;
48727;SDS011;34527;45.618;5.130;2023-05-15T06:32:23;33.25;;;25.80;;
48727;SDS011;34527;45.618;5.130;2023-05-15T06:34:48;37.55;;;27.58;;
48727;SDS011;34527;45.618;5.130;2023-05-15T06:37:14;36.70;;;26.42;;
48727;SDS011;34527;45.618;5.130;2023-05-15T06:39:40;36.55;;;24.48;;
48727;SDS011;34527;45.618;5.130;2023-05-15T06:42:06;35.88;;;26.05;;
48727;SDS011;34527;45.618;5.130;2023-05-15T06:44:32;32.38;;;26.10;;
48727;SDS011;34527;45.618;5.130;2023-05-15T06:46:57;29.27;;;24.33;;
48727;SDS011;34527;45.618;5.130;2023-05-15T06:49:23;30.98;;;25.15;;
48727;SDS011;34527;45.618;5.130;2023-05-15T06:51:49;34.30;;;25.75;;
48727;SDS011;34527;45.618;5.130;2023-05-15T06:54:15;35.92;;;25.88;;
48727;SDS011;34527;45.618;5.130;2023-05-15T06:56:41;39.08;;;27.48;;
48727;SDS011;34527;45.618;5.130;2023-05-15T06:59:06;38.50;;;27.92;;
48727;SDS011;34527;45.618;5.130;2023-05-15T07:01:32;38.00;;;28.55;;
48727;SDS011;34527;45.618;5.130;2023-05-15T07:03:58;37.85;;;26.95;;
48727;SDS011;34527;45.618;5.130;2023-05-15T07:06:23;37.97;;;28.63;;
48727;SDS011;34527;45.618;5.130;2023-05-15T07:08:50;37.03;;;27.42;;
48727;SDS011;34527;45.618;5.130;2023-05-15T07:11:15;37.25;;;26.88;;
48727;SDS011;34527;45.618;5.130;2023-05-15T07:13:41;40.35;;;29.45;;
48727;SDS011;34527;45.618;5.130;2023-05-15T07:16:06;38.72;;;28.90;;
48727;SDS011;34527;45.618;5.130;2023-05-15T07:18:32;38.22;;;28.15;;
48727;SDS011;34527;45.618;5.130;2023-05-15T07:20:58;39.72;;;28.77;;
48727;SDS011;34527;45.618;5.130;2023-05-15T07:23:23;40.75;;;28.95;;
48727;SDS011;34527;45.618;5.130;2023-05-15T07:25:51;38.78;;;29.80;;
48727;SDS011;34527;45.618;5.130;2023-05-15T07:28:18;38.58;;;27.33;;
48727;SDS011;34527;45.618;5.130;2023-05-15T07:30:43;39.65;;;28.60;;
48727;SDS011;34527;45.618;5.130;2023-05-15T07:33:09;41.78;;;30.88;;
48727;SDS011;34527;45.618;5.130;2023-05-15T07:35:34;41.10;;;28.10;;
48727;SDS011;34527;45.618;5.130;2023-05-15T07:38:00;38.17;;;28.45;;
48727;SDS011;34527;45.618;5.130;2023-05-15T07:40:26;35.85;;;28.92;;
48727;SDS011;34527;45.618;5.130;2023-05-15T07:42:51;39.78;;;27.75;;
48727;SDS011;34527;45.618;5.130;2023-05-15T07:45:17;36.75;;;27.48;;
48727;SDS011;34527;45.618;5.130;2023-05-15T07:47:47;39.17;;;28.52;;
48727;SDS011;34527;45.618;5.130;2023-05-15T07:50:13;39.88;;;28.55;;
48727;SDS011;34527;45.618;5.130;2023-05-15T07:52:39;34.88;;;27.23;;
48727;SDS011;34527;45.618;5.130;2023-05-15T07:55:06;41.17;;;28.70;;
48727;SDS011;34527;45.618;5.130;2023-05-15T07:57:32;38.60;;;28.33;;
48727;SDS011;34527;45.618;5.130;2023-05-15T07:59:58;38.50;;;28.67;;
48727;SDS011;34527;45.618;5.130;2023-05-15T08:02:23;36.33;;;27.60;;
48727;SDS011;34527;45.618;5.130;2023-05-15T08:04:49;40.25;;;28.27;;
48727;SDS011;34527;45.618;5.130;2023-05-15T08:07:15;38.05;;;29.02;;
48727;SDS011;34527;45.618;5.130;2023-05-15T08:09:40;38.53;;;28.73;;
48727;SDS011;34527;45.618;5.130;2023-05-15T08:12:19;38.67;;;28.30;;
48727;SDS011;34527;45.618;5.130;2023-05-15T08:14:55;37.17;;;28.00;;
48727;SDS011;34527;45.618;5.130;2023-05-15T08:19:46;36.83;;;26.83;;
48727;SDS011;34527;45.618;5.130;2023-05-15T08:22:13;43.28;;;29.33;;
48727;SDS011;34527;45.618;5.130;2023-05-15T08:24:39;37.60;;;27.92;;
48727;SDS011;34527;45.618;5.130;2023-05-15T08:27:05;36.72;;;28.42;;
48727;SDS011;34527;45.618;5.130;2023-05-15T08:29:32;38.83;;;28.20;;
48727;SDS011;34527;45.618;5.130;2023-05-15T08:31:58;39.90;;;29.23;;
48727;SDS011;34527;45.618;5.130;2023-05-15T08:34:25;37.60;;;29.17;;
48727;SDS011;34527;45.618;5.130;2023-05-15T08:36:51;37.35;;;28.63;;
48727;SDS011;34527;45.618;5.130;2023-05-15T08:39:17;39.03;;;29.05;;
48727;SDS011;34527;45.618;5.130;2023-05-15T08:41:46;35.97;;;27.70;;
48727;SDS011;34527;45.618;5.130;2023-05-15T08:46:43;33.83;;;26.25;;
48727;SDS011;34527;45.618;5.130;2023-05-15T08:49:11;36.08;;;28.88;;
48727;SDS011;34527;45.618;5.130;2023-05-15T08:51:43;41.47;;;28.83;;
48727;SDS011;34527;45.618;5.130;2023-05-15T08:54:09;33.95;;;27.45;;
48727;SDS011;34527;45.618;5.130;2023-05-15T08:56:35;35.78;;;27.75;;
48727;SDS011;34527;45.618;5.130;2023-05-15T08:59:01;39.10;;;27.20;;
48727;SDS011;34527;45.618;5.130;2023-05-15T09:01:27;35.80;;;27.88;;
48727;SDS011;34527;45.618;5.130;2023-05-15T09:03:54;36.20;;;26.95;;
48727;SDS011;34527;45.618;5.130;2023-05-15T09:06:20;33.10;;;26.40;;
48727;SDS011;34527;45.618;5.130;2023-05-15T09:08:46;33.20;;;26.95;;
48727;SDS011;34527;45.618;5.130;2023-05-15T09:11:13;31.77;;;25.65;;
48727;SDS011;34527;45.618;5.130;2023-05-15T09:13:40;28.83;;;24.27;;
48727;SDS011;34527;45.618;5.130;2023-05-15T09:16:06;34.28;;;26.23;;
48727;SDS011;34527;45.618;5.130;2023-05-15T09:18:31;31.42;;;25.15;;
48727;SDS011;34527;45.618;5.130;2023-05-15T09:23:54;33.65;;;25.55;;
48727;SDS011;34527;45.618;5.130;2023-05-15T09:26:38;31.63;;;23.65;;
48727;SDS011;34527;45.618;5.130;2023-05-15T09:29:04;31.88;;;24.58;;
48727;SDS011;34527;45.618;5.130;2023-05-15T09:31:30;30.17;;;24.17;;
48727;SDS011;34527;45.618;5.130;2023-05-15T09:33:59;31.23;;;24.30;;
48727;SDS011;34527;45.618;5.130;2023-05-15T09:36:26;27.65;;;21.20;;
48727;SDS011;34527;45.618;5.130;2023-05-15T09:38:57;24.70;;;19.20;;
48727;SDS011;34527;45.618;5.130;2023-05-15T09:41:24;28.50;;;20.25;;
48727;SDS011;34527;45.618;5.130;2023-05-15T09:43:56;24.25;;;19.48;;
48727;SDS011;34527;45.618;5.130;2023-05-15T09:46:21;24.33;;;19.65;;
48727;SDS011;34527;45.618;5.130;2023-05-15T09:48:48;22.65;;;18.63;;
48727;SDS011;34527;45.618;5.130;2023-05-15T09:51:18;22.45;;;18.38;;
48727;SDS011;34527;45.618;5.130;2023-05-15T09:53:48;22.25;;;18.20;;
48727;SDS011;34527;45.618;5.130;2023-05-15T09:56:15;24.27;;;17.60;;
48727;SDS011;34527;45.618;5.130;2023-05-15T09:58:54;22.50;;;18.15;;
48727;SDS011;34527;45.618;5.130;2023-05-15T10:01:21;24.92;;;18.33;;
48727;SDS011;34527;45.618;5.130;2023-05-15T10:03:55;22.58;;;18.33;;
48727;SDS011;34527;45.618;5.130;2023-05-15T10:06:24;21.02;;;16.73;;
48727;SDS011;34527;45.618;5.130;2023-05-15T10:08:51;20.70;;;14.93;;
48727;SDS011;34527;45.618;5.130;2023-05-15T10:11:19;20.88;;;15.07;;
48727;SDS011;34527;45.618;5.130;2023-05-15T10:13:48;20.98;;;17.42;;
48727;SDS011;34527;45.618;5.130;2023-05-15T10:16:14;17.80;;;15.85;;
48727;SDS011;34527;45.618;5.130;2023-05-15T10:18:40;20.23;;;15.27;;
48727;SDS011;34527;45.618;5.130;2023-05-15T10:21:07;19.58;;;15.65;;
48727;SDS011;34527;45.618;5.130;2023-05-15T10:23:34;18.50;;;15.52;;
48727;SDS011;34527;45.618;5.130;2023-05-15T10:26:03;19.10;;;16.60;;
48727;SDS011;34527;45.618;5.130;2023-05-15T10:28:38;21.40;;;17.23;;
48727;SDS011;34527;45.618;5.130;2023-05-15T10:31:04;20.83;;;16.35;;
48727;SDS011;34527;45.618;5.130;2023-05-15T10:33:31;30.95;;;22.77;;
48727;SDS011;34527;45.618;5.130;2023-05-15T10:35:58;20.85;;;18.55;;
48727;SDS011;34527;45.618;5.130;2023-05-15T10:38:26;19.05;;;16.52;;
48727;SDS011;34527;45.618;5.130;2023-05-15T10:40:52;17.85;;;15.63;;
48727;SDS011;34527;45.618;5.130;2023-05-15T10:43:21;18.40;;;15.02;;
48727;SDS011;34527;45.618;5.130;2023-05-15T10:45:47;16.42;;;14.65;;
48727;SDS011;34527;45.618;5.130;2023-05-15T10:48:14;24.63;;;20.05;;
48727;SDS011;34527;45.618;5.130;2023-05-15T10:50:40;21.02;;;16.30;;
48727;SDS011;34527;45.618;5.130;2023-05-15T10:53:07;18.98;;;16.88;;
48727;SDS011;34527;45.618;5.130;2023-05-15T10:55:33;19.00;;;16.35;;
48727;SDS011;34527;45.618;5.130;2023-05-15T10:58:00;18.90;;;15.95;;
48727;SDS011;34527;45.618;5.130;2023-05-15T11:00:27;20.73;;;16.83;;
48727;SDS011;34527;45.618;5.130;2023-05-15T11:02:55;23.27;;;17.73;;
48727;SDS011;34527;45.618;5.130;2023-05-15T11:05:22;23.35;;;17.92;;
48727;SDS011;34527;45.618;5.130;2023-05-15T11:08:35;20.30;;;17.65;;
48727;SDS011;34527;45.618;5.130;2023-05-15T11:10:42;23.27;;;16.50;;
48727;SDS011;34527;45.618;5.130;2023-05-15T11:13:08;21.48;;;17.15;;
48727;SDS011;34527;45.618;5.130;2023-05-15T11:15:42;19.48;;;16.60;;
48727;SDS011;34527;45.618;5.130;2023-05-15T11:18:09;18.02;;;16.00;;
48727;SDS011;34527;45.618;5.130;2023-05-15T11:20:38;18.65;;;15.68;;
48727;SDS011;34527;45.618;5.130;2023-05-15T11:23:13;18.33;;;16.23;;
48727;SDS011;34527;45.618;5.130;2023-05-15T11:25:38;18.25;;;15.77;;
48727;SDS011;34527;45.618;5.130;2023-05-15T11:28:04;17.98;;;15.48;;
48727;SDS011;34527;45.618;5.130;2023-05-15T11:30:35;19.08;;;16.08;;
48727;SDS011;34527;45.618;5.130;2023-05-15T11:40:29;19.10;;;16.30;;
48727;SDS011;34527;45.618;5.130;2023-05-15T11:42:57;19.88;;;16.95;;
48727;SDS011;34527;45.618;5.130;2023-05-15T11:45:41;19.93;;;16.23;;
48727;SDS011;34527;45.618;5.130;2023-05-15T11:48:11;23.30;;;18.63;;
48727;SDS011;34527;45.618;5.130;2023-05-15T11:50:40;24.20;;;19.40;;
48727;SDS011;34527;45.618;5.130;2023-05-15T11:53:07;24.30;;;20.13;;
48727;SDS011;34527;45.618;5.130;2023-05-15T11:55:41;23.08;;;19.23;;
48727;SDS011;34527;45.618;5.130;2023-05-15T11:58:15;24.30;;;18.27;;
48727;SDS011;34527;45.618;5.130;2023-05-15T12:00:42;21.65;;;17.88;;
48727;SDS011;34527;45.618;5.130;2023-05-15T12:03:16;22.50;;;19.27;;
48727;SDS011;34527;45.618;5.130;2023-05-15T12:05:42;23.33;;;18.92;;
48727;SDS011;34527;45.618;5.130;2023-05-15T12:08:09;24.17;;;19.27;;
48727;SDS011;34527;45.618;5.130;2023-05-15T12:10:40;25.05;;;20.73;;
48727;SDS011;34527;45.618;5.130;2023-05-15T12:13:12;27.85;;;19.48;;
48727;SDS011;34527;45.618;5.130;2023-05-15T12:15:43;25.27;;;20.35;;
48727;SDS011;34527;45.618;5.130;2023-05-15T12:18:09;25.40;;;19.73;;
48727;SDS011;34527;45.618;5.130;2023-05-15T12:20:36;21.15;;;16.83;;
48727;SDS011;34527;45.618;5.130;2023-05-15T12:23:03;19.08;;;15.55;;
48727;SDS011;34527;45.618;5.130;2023-05-15T12:25:33;18.33;;;15.93;;
48727;SDS011;34527;45.618;5.130;2023-05-15T12:28:01;20.20;;;15.52;;
48727;SDS011;34527;45.618;5.130;2023-05-15T12:30:29;19.90;;;15.27;;
48727;SDS011;34527;45.618;5.130;2023-05-15T12:33:00;20.15;;;15.18;;
48727;SDS011;34527;45.618;5.130;2023-05-15T12:35:28;20.67;;;15.38;;
48727;SDS011;34527;45.618;5.130;2023-05-15T12:37:54;20.10;;;15.13;;
48727;SDS011;34527;45.618;5.130;2023-05-15T12:40:20;14.57;;;13.05;;
48727;SDS011;34527;45.618;5.130;2023-05-15T12:42:51;17.15;;;12.77;;
48727;SDS011;34527;45.618;5.130;2023-05-15T12:45:19;15.07;;;12.82;;
48727;SDS011;34527;45.618;5.130;2023-05-15T12:47:46;16.92;;;14.30;;
48727;SDS011;34527;45.618;5.130;2023-05-15T12:50:13;17.38;;;14.20;;
48727;SDS011;34527;45.618;5.130;2023-05-15T12:52:49;18.92;;;13.00;;
48727;SDS011;34527;45.618;5.130;2023-05-15T12:57:47;17.73;;;12.45;;
48727;SDS011;34527;45.618;5.130;2023-05-15T13:00:13;17.58;;;13.18;;
48727;SDS011;34527;45.618;5.130;2023-05-15T13:02:42;15.30;;;13.60;;
48727;SDS011;34527;45.618;5.130;2023-05-15T13:05:09;18.65;;;14.70;;
48727;SDS011;34527;45.618;5.130;2023-05-15T13:07:35;21.95;;;14.35;;
48727;SDS011;34527;45.618;5.130;2023-05-15T13:10:03;18.48;;;14.43;;
48727;SDS011;34527;45.618;5.130;2023-05-15T13:12:43;19.65;;;14.48;;
48727;SDS011;34527;45.618;5.130;2023-05-15T13:15:23;18.88;;;14.02;;
48727;SDS011;34527;45.618;5.130;2023-05-15T13:18:02;15.52;;;13.45;;
48727;SDS011;34527;45.618;5.130;2023-05-15T13:20:31;14.95;;;13.20;;
48727;SDS011;34527;45.618;5.130;2023-05-15T13:23:05;19.40;;;14.45;;
48727;SDS011;34527;45.618;5.130;2023-05-15T13:25:31;15.13;;;13.63;;
48727;SDS011;34527;45.618;5.130;2023-05-15T13:27:57;16.55;;;14.40;;
48727;SDS011;34527;45.618;5.130;2023-05-15T13:30:24;16.02;;;14.40;;
48727;SDS011;34527;45.618;5.130;2023-05-15T13:32:53;17.67;;;14.75;;
48727;SDS011;34527;45.618;5.130;2023-05-15T13:35:19;20.20;;;14.80;;
48727;SDS011;34527;45.618;5.130;2023-05-15T13:37:45;18.90;;;15.32;;
48727;SDS011;34527;45.618;5.130;2023-05-15T13:40:10;17.13;;;15.25;;
48727;SDS011;34527;45.618;5.130;2023-05-15T13:42:37;16.52;;;14.77;;
48727;SDS011;34527;45.618;5.130;2023-05-15T13:45:08;16.63;;;14.65;;
48727;SDS011;34527;45.618;5.130;2023-05-15T13:47:37;18.08;;;14.77;;
48727;SDS011;34527;45.618;5.130;2023-05-15T13:50:06;16.85;;;14.05;;
48727;SDS011;34527;45.618;5.130;2023-05-15T13:52:36;19.13;;;15.05;;
48727;SDS011;34527;45.618;5.130;2023-05-15T13:55:03;17.15;;;13.80;;
48727;SDS011;34527;45.618;5.130;2023-05-15T13:57:29;17.90;;;14.48;;
48727;SDS011;34527;45.618;5.130;2023-05-15T13:59:56;17.95;;;14.85;;
48727;SDS011;34527;45.618;5.130;2023-05-15T14:02:21;17.73;;;13.85;;
48727;SDS011;34527;45.618;5.130;2023-05-15T14:04:50;15.93;;;14.30;;
48727;SDS011;34527;45.618;5.130;2023-05-15T14:07:17;17.23;;;15.45;;
48727;SDS011;34527;45.618;5.130;2023-05-15T14:09:43;15.98;;;14.30;;
48727;SDS011;34527;45.618;5.130;2023-05-15T14:12:08;19.98;;;15.25;;
48727;SDS011;34527;45.618;5.130;2023-05-15T14:14:35;18.67;;;15.38;;
48727;SDS011;34527;45.618;5.130;2023-05-15T14:17:00;17.02;;;14.45;;
48727;SDS011;34527;45.618;5.130;2023-05-15T14:19:26;16.00;;;12.45;;
48727;SDS011;34527;45.618;5.130;2023-05-15T14:21:52;18.58;;;14.43;;
48727;SDS011;34527;45.618;5.130;2023-05-15T14:24:17;17.80;;;14.77;;
48727;SDS011;34527;45.618;5.130;2023-05-15T14:26:43;17.60;;;15.20;;
48727;SDS011;34527;45.618;5.130;2023-05-15T14:29:09;23.77;;;16.23;;
48727;SDS011;34527;45.618;5.130;2023-05-15T14:31:35;18.90;;;16.90;;
48727;SDS011;34527;45.618;5.130;2023-05-15T14:34:01;19.38;;;17.20;;
48727;SDS011;34527;45.618;5.130;2023-05-15T14:36:26;23.17;;;18.58;;
48727;SDS011;34527;45.618;5.130;2023-05-15T14:38:52;22.95;;;19.30;;
48727;SDS011;34527;45.618;5.130;2023-05-15T14:41:18;20.90;;;18.63;;
48727;SDS011;34527;45.618;5.130;2023-05-15T14:43:43;23.75;;;19.10;;
48727;SDS011;34527;45.618;5.130;2023-05-15T14:46:09;24.27;;;20.25;;